Monteview, Idaho
Current Conditions -  °F | °C
As of 12:53 PM on Sunday 23 Nov 2014 (Local Time) from KRXE Reporting Station
Few Clouds Few Clouds  
Wind Chill: 24°   Ceiling: Unl
Heat Index: 34°   Visibility: 10mi
Dew Point: 25°   Wind: 15mph
Humidity: 70%   Direction: 190°S
Pressure: 30.11"   Gusts: NA
Location:  43.94°N, 112.54°W
Report Text: KRXE 231953Z AUTO 19013KT 10SM FEW075 01/M04 A3011 RMK AO2 SLP217 T00111039
Loading
Personal Weather Stations






























Interactive Weather Map New forecast layout! Learn more

10-Day Weather Forecast

Advertisements
Track Severe Weather on mobile